»·PEaware :: ASA935 KSEA-KGEG

ASA935 :: KSEA-KGEG

FLIGHT INFORMATION

Flight Status: Arrived
Operator:
Alaska Airlines
More flights by this operator :: More flights under this callsign
Pilot: Michael S. (20314)
Aircraft: AIRBUS A321
(A321)
More flights by this aircraft type
Origin: KSEA Seattle-Tacoma Intl
United States
Destination: KGEG Spokane Intl
United States
More flights between these airports :: More routes between these airports
Route: SEA7 ZADON ZELAK ZIRAN ZOOMR ZOOMR1
File this flight plan on PilotEdge
Remarks: RMK / SIMBRIEF
Altitude:
(Current/Filed)
27,000ft
Speed:
(Current/Filed)
433kts
Departed: 23-Dec-21 04:03 PM
Arrived: 23-Dec-21 04:49 PM
Distance/Time
Traveled:
926nm/0:46
Distance/Time
To Go:
Arrived

Flight Plot

Page will automatically refresh every two minutes.

Flight plan parsing failed; only flown route is shown


Map Options




Map Legend


Flown Route
Filed Route
Departure Airport
Arrival Airport
Navaid (VOR, NDB)
Fix

Horizontal Profiles

Position Reports

Time Latitude Longitude Heading Altitude Ground
Speed
23-Dec-21 15:21 47.449655 -122.303774 152 442ft 0kts
23-Dec-21 15:22 47.449655 -122.303774 152 442ft 0kts
23-Dec-21 15:23 47.449655 -122.303774 152 442ft 0kts
23-Dec-21 15:24 47.449655 -122.303774 152 442ft 0kts
23-Dec-21 15:25 47.449655 -122.303774 152 442ft 0kts
23-Dec-21 15:26 47.449655 -122.303774 152 442ft 0kts
23-Dec-21 15:27 47.449655 -122.303774 152 442ft 0kts
23-Dec-21 15:28 47.449655 -122.303774 152 442ft 0kts
23-Dec-21 15:29 47.449655 -122.303774 152 442ft 0kts
23-Dec-21 15:30 47.449655 -122.303774 152 442ft 0kts
23-Dec-21 15:31 47.449655 -122.303774 152 442ft 0kts
23-Dec-21 15:32 47.449655 -122.303774 152 442ft 0kts
23-Dec-21 15:33 47.449655 -122.303774 152 442ft 0kts
23-Dec-21 15:34 47.449655 -122.303774 152 442ft 0kts
23-Dec-21 15:35 47.449655 -122.303774 152 442ft 0kts
23-Dec-21 15:36 47.449655 -122.303774 152 442ft 0kts
23-Dec-21 15:37 47.449655 -122.303774 152 442ft 0kts
23-Dec-21 15:38 47.449655 -122.303774 152 442ft 0kts
23-Dec-21 15:39 47.449655 -122.303774 152 442ft 0kts
23-Dec-21 15:40 47.449655 -122.303774 152 442ft 0kts
23-Dec-21 15:41 47.449655 -122.303774 152 442ft 0kts
23-Dec-21 15:42 47.449655 -122.303774 152 442ft 0kts
23-Dec-21 15:43 47.449655 -122.303774 152 442ft 0kts
23-Dec-21 15:44 47.449655 -122.303774 152 442ft 0kts
23-Dec-21 15:45 47.449655 -122.303774 152 442ft 0kts
23-Dec-21 15:46 47.449655 -122.303774 152 442ft 0kts
23-Dec-21 15:47 47.449655 -122.303774 152 442ft 0kts
23-Dec-21 15:48 47.449655 -122.303774 152 442ft 0kts
23-Dec-21 15:49 47.449655 -122.303774 152 442ft 0kts
23-Dec-21 15:50 47.449655 -122.303774 152 442ft 0kts
23-Dec-21 15:51 47.449655 -122.303774 152 442ft 0kts
23-Dec-21 15:52 47.449711 -122.303816 168 442ft 2kts
23-Dec-21 15:53 47.449989 -122.303374 248 442ft 0kts
23-Dec-21 15:54 47.449989 -122.303375 248 442ft 0kts
23-Dec-21 15:55 47.449989 -122.303375 248 442ft 0kts
23-Dec-21 15:56 47.449868 -122.304544 272 442ft 10kts
23-Dec-21 15:57 47.452657 -122.306249 0 442ft 14kts
23-Dec-21 15:58 47.456548 -122.306260 0 442ft 14kts
23-Dec-21 15:59 47.460867 -122.306199 0 442ft 16kts
23-Dec-21 16:00 47.463637 -122.306353 299 442ft 0kts
23-Dec-21 16:01 47.463709 -122.306872 267 442ft 7kts
23-Dec-21 16:02 47.444621 -122.307595 183 652ft 161kts
23-Dec-21 16:03 47.401384 -122.303661 181 2779ft 172kts
23-Dec-21 16:05 47.345198 -122.299024 180 3960ft 236kts
23-Dec-21 16:06 47.272840 -122.294693 181 6196ft 271kts
23-Dec-21 16:07 47.196580 -122.287960 178 9116ft 282kts
23-Dec-21 16:08 47.151739 -122.199119 80 11068ft 340kts
23-Dec-21 16:09 47.190539 -122.061370 60 12849ft 378kts
23-Dec-21 16:10 47.274380 -121.977809 22 15301ft 375kts
23-Dec-21 16:11 47.366216 -121.902943 23 17776ft 379kts
23-Dec-21 16:12 47.458802 -121.824624 23 19677ft 392kts
23-Dec-21 16:13 47.547756 -121.733963 51 21257ft 425kts
23-Dec-21 16:14 47.560297 -121.556825 90 23078ft 445kts
23-Dec-21 16:15 47.557106 -121.373944 89 24886ft 447kts
23-Dec-21 16:16 47.554188 -121.188678 90 26282ft 455kts
23-Dec-21 16:17 47.550887 -121.000042 90 27585ft 463kts
23-Dec-21 16:18 47.547221 -120.808468 91 28986ft 465kts
23-Dec-21 16:19 47.543149 -120.612738 91 29858ft 478kts
23-Dec-21 16:20 47.538660 -120.414847 91 30412ft 493kts
23-Dec-21 16:21 47.529548 -120.211935 94 30412ft 495kts
23-Dec-21 16:22 47.519787 -120.009096 94 30413ft 495kts
23-Dec-21 16:23 47.509922 -119.807610 94 30037ft 479kts
23-Dec-21 16:24 47.500099 -119.614241 93 27592ft 472kts
23-Dec-21 16:25 47.489868 -119.419335 93 24432ft 479kts
23-Dec-21 16:25 47.481097 -119.256021 93 21598ft 482kts
23-Dec-21 16:27 47.468658 -119.031575 93 18618ft 459kts
23-Dec-21 16:28 47.458088 -118.847047 94 16092ft 442kts
23-Dec-21 16:29 47.447706 -118.671047 95 14148ft 412kts
23-Dec-21 16:29 47.439561 -118.536144 95 13066ft 381kts
23-Dec-21 16:30 47.429979 -118.381221 96 11058ft 374kts
23-Dec-21 16:32 47.446284 -118.204775 72 10969ft 376kts
23-Dec-21 16:33 47.477256 -118.057740 72 10960ft 375kts
23-Dec-21 16:34 47.526253 -117.927322 44 10649ft 347kts
23-Dec-21 16:34 47.576993 -117.846551 44 9152ft 310kts
23-Dec-21 16:35 47.632059 -117.757395 44 8433ft 275kts
23-Dec-21 16:36 47.682470 -117.675859 44 7268ft 266kts
23-Dec-21 16:38 47.740968 -117.582600 43 6987ft 254kts
23-Dec-21 16:38 47.779717 -117.520591 43 7006ft 245kts
23-Dec-21 16:39 47.825235 -117.447844 44 5776ft 240kts
23-Dec-21 16:40 47.869680 -117.376398 61 4990ft 235kts
23-Dec-21 16:41 47.850792 -117.303494 148 4740ft 191kts
23-Dec-21 16:42 47.801608 -117.293373 194 3995ft 177kts
23-Dec-21 16:43 47.759204 -117.326432 225 3974ft 175kts
23-Dec-21 16:44 47.725209 -117.377059 226 3990ft 173kts
23-Dec-21 16:45 47.691346 -117.427804 227 3986ft 172kts
23-Dec-21 16:46 47.662733 -117.470849 227 3294ft 134kts
23-Dec-21 16:47 47.637373 -117.508719 226 2622ft 127kts
23-Dec-21 16:48 47.621832 -117.532399 230 2392ft 20kts
23-Dec-21 16:49 47.619943 -117.537907 268 2392ft 0kts
23-Dec-21 16:50 47.621245 -117.537434 42 2392ft 14kts
23-Dec-21 16:51 47.622698 -117.540018 301 2392ft 6kts
23-Dec-21 16:52 47.623320 -117.540356 358 2392ft 0kts
23-Dec-21 16:53 47.623320 -117.540356 358 2392ft 0kts
23-Dec-21 16:54 38.799917 -104.701123 179 6191ft 0kts

Navigation Log

Ident Type
Flight plan parsing failed, navigation log unavailable